createdAt,value
2022-08-25T00:01:58.779Z,18.80
2022-08-25T00:04:27.735Z,18.80
2022-08-25T00:06:59.445Z,18.80
2022-08-25T00:09:28.027Z,18.70
2022-08-25T00:12:01.719Z,18.70
2022-08-25T00:14:31.430Z,18.60
2022-08-25T00:16:59.579Z,18.60
2022-08-25T00:19:30.386Z,18.60
2022-08-25T00:21:57.613Z,18.60
2022-08-25T00:24:25.403Z,18.60
2022-08-25T00:26:57.386Z,18.50
2022-08-25T00:29:27.177Z,18.50
2022-08-25T00:31:57.351Z,18.70
2022-08-25T00:34:29.016Z,18.60
2022-08-25T00:36:55.880Z,18.70
2022-08-25T00:39:24.106Z,18.60
2022-08-25T00:41:54.289Z,18.80
2022-08-25T00:44:21.362Z,18.60
2022-08-25T00:46:50.654Z,18.80
2022-08-25T00:49:25.276Z,18.90
2022-08-25T00:51:58.614Z,18.80
2022-08-25T00:54:30.282Z,18.60
2022-08-25T00:56:59.658Z,18.90
2022-08-25T00:59:28.209Z,18.70
2022-08-25T01:01:56.398Z,18.70
2022-08-25T01:04:23.264Z,18.80
2022-08-25T01:06:50.811Z,18.60
2022-08-25T01:09:19.958Z,18.40
2022-08-25T01:11:47.574Z,18.50
2022-08-25T01:14:18.599Z,18.40
2022-08-25T01:16:46.086Z,18.40
2022-08-25T01:19:18.432Z,18.40
2022-08-25T01:21:50.444Z,18.50
2022-08-25T01:24:37.086Z,18.50
2022-08-25T01:27:05.262Z,18.40
2022-08-25T01:29:33.003Z,18.50
2022-08-25T01:32:03.385Z,18.60
2022-08-25T01:34:33.551Z,18.50
2022-08-25T01:37:05.782Z,18.50
2022-08-25T01:39:34.303Z,18.50
2022-08-25T01:42:18.162Z,18.40
2022-08-25T01:44:47.763Z,18.40
2022-08-25T01:47:14.860Z,18.30
2022-08-25T01:49:41.855Z,18.40
2022-08-25T01:52:15.739Z,18.50
2022-08-25T01:54:42.641Z,18.40
2022-08-25T01:57:10.202Z,18.40
2022-08-25T01:59:37.056Z,18.40
2022-08-25T02:02:04.946Z,18.40
2022-08-25T02:04:33.151Z,18.40
2022-08-25T02:07:01.573Z,18.50
2022-08-25T02:09:29.994Z,18.50
2022-08-25T02:11:57.882Z,18.50
2022-08-25T02:14:24.842Z,18.50
2022-08-25T02:16:53.553Z,18.50
2022-08-25T02:19:23.071Z,18.50
2022-08-25T02:21:50.292Z,18.50
2022-08-25T02:24:19.928Z,18.50
2022-08-25T02:26:49.144Z,18.50
2022-08-25T02:29:21.770Z,18.40
2022-08-25T02:31:49.216Z,18.50
2022-08-25T02:34:18.904Z,18.60
2022-08-25T02:36:51.623Z,18.60
2022-08-25T02:39:18.424Z,18.60
2022-08-25T02:41:45.211Z,18.60
2022-08-25T02:44:16.484Z,18.50
2022-08-25T02:46:43.240Z,18.60
2022-08-25T02:49:10.089Z,18.60
2022-08-25T02:51:37.494Z,18.50
2022-08-25T02:54:05.672Z,18.40
2022-08-25T02:56:33.324Z,18.40
2022-08-25T02:59:03.601Z,18.40
2022-08-25T03:01:32.527Z,18.40
2022-08-25T03:04:00.607Z,18.30
2022-08-25T03:06:28.596Z,18.20
2022-08-25T03:08:55.887Z,18.30
2022-08-25T03:11:22.755Z,18.30
2022-08-25T03:13:50.500Z,18.20
2022-08-25T03:16:18.491Z,18.20
2022-08-25T03:18:47.269Z,18.20
2022-08-25T03:21:15.942Z,18.00
2022-08-25T03:23:44.243Z,18.00
2022-08-25T03:26:11.099Z,18.00
2022-08-25T03:28:38.535Z,18.00
2022-08-25T03:31:06.793Z,18.00
2022-08-25T03:33:33.702Z,17.90
2022-08-25T03:36:02.932Z,17.90
2022-08-25T03:38:29.799Z,17.80
2022-08-25T03:40:56.657Z,17.60
2022-08-25T03:43:24.034Z,17.70
2022-08-25T03:45:50.869Z,17.70
2022-08-25T03:48:17.854Z,17.70
2022-08-25T03:50:50.337Z,17.60
2022-08-25T03:53:19.659Z,17.60
2022-08-25T03:55:47.470Z,17.50
2022-08-25T03:58:17.035Z,17.50
2022-08-25T04:00:46.045Z,17.40
2022-08-25T04:03:14.967Z,17.40
2022-08-25T04:05:41.835Z,17.40
2022-08-25T04:08:08.746Z,17.30
2022-08-25T04:10:38.234Z,17.30
2022-08-25T04:13:05.770Z,17.20
2022-08-25T04:15:34.568Z,17.40
2022-08-25T04:18:02.040Z,17.20
2022-08-25T04:20:28.923Z,17.20
2022-08-25T04:22:55.693Z,17.20
2022-08-25T04:25:23.095Z,17.20
2022-08-25T04:27:51.800Z,17.30
2022-08-25T04:30:18.743Z,17.30
2022-08-25T04:32:47.273Z,17.40
2022-08-25T04:35:14.734Z,17.30
2022-08-25T04:37:41.565Z,17.30
2022-08-25T04:40:09.715Z,17.30
2022-08-25T04:42:37.013Z,17.40
2022-08-25T04:45:06.971Z,17.30
2022-08-25T04:47:36.988Z,17.20
2022-08-25T04:50:05.550Z,17.20
2022-08-25T04:52:35.489Z,17.20
2022-08-25T04:55:02.317Z,17.20
2022-08-25T04:57:29.829Z,17.30
2022-08-25T04:59:56.651Z,17.30
2022-08-25T05:02:25.196Z,17.20
2022-08-25T05:04:54.458Z,17.20
2022-08-25T05:07:21.101Z,17.30
2022-08-25T05:09:50.330Z,17.30
2022-08-25T05:12:17.710Z,17.30
2022-08-25T05:14:44.662Z,17.40
2022-08-25T05:17:11.445Z,17.40
2022-08-25T05:19:46.392Z,17.50
2022-08-25T05:22:13.168Z,17.60
2022-08-25T05:24:40.584Z,17.60
2022-08-25T05:27:07.350Z,17.70
2022-08-25T05:29:34.193Z,17.90
2022-08-25T05:32:01.623Z,18.10
2022-08-25T05:34:28.479Z,18.20
2022-08-25T05:36:56.615Z,18.30
2022-08-25T05:39:23.900Z,18.40
2022-08-25T05:41:53.722Z,18.50
2022-08-25T05:44:21.522Z,18.60
2022-08-25T05:46:49.549Z,18.80
2022-08-25T05:49:16.347Z,19.00
2022-08-25T05:51:43.120Z,19.10
2022-08-25T05:54:11.836Z,19.30
2022-08-25T05:56:39.634Z,19.50
2022-08-25T05:59:09.432Z,19.70
2022-08-25T06:01:37.448Z,19.70
2022-08-25T06:04:04.567Z,19.90
2022-08-25T06:06:31.553Z,20.00
2022-08-25T06:08:58.913Z,20.10
2022-08-25T06:11:29.739Z,20.20
2022-08-25T06:13:58.522Z,20.50
2022-08-25T06:16:25.950Z,22.20
2022-08-25T06:18:52.955Z,23.30
2022-08-25T06:21:19.790Z,24.10
2022-08-25T06:23:47.166Z,24.80
2022-08-25T06:26:21.315Z,25.00
2022-08-25T06:28:50.897Z,25.20
2022-08-25T06:31:18.498Z,25.40
2022-08-25T06:33:45.318Z,24.70
2022-08-25T06:36:12.867Z,25.00
2022-08-25T06:38:39.624Z,25.00
2022-08-25T06:41:08.027Z,25.70
2022-08-25T06:43:37.104Z,25.60
2022-08-25T06:46:12.675Z,25.40
2022-08-25T06:48:40.860Z,25.20
2022-08-25T06:51:10.223Z,25.30
2022-08-25T06:53:44.142Z,25.10
2022-08-25T06:56:11.575Z,25.80
2022-08-25T06:58:39.485Z,26.80
2022-08-25T07:01:14.922Z,26.30
2022-08-25T07:03:43.080Z,26.70
2022-08-25T07:06:10.557Z,26.90
2022-08-25T07:08:37.911Z,26.80
2022-08-25T07:11:12.850Z,26.60
2022-08-25T07:13:44.918Z,26.70
2022-08-25T07:16:14.238Z,26.70
2022-08-25T07:18:41.128Z,27.70
2022-08-25T07:21:09.255Z,27.30
2022-08-25T07:23:36.226Z,27.70
2022-08-25T07:26:33.655Z,27.70
2022-08-25T07:28:58.478Z,26.90
2022-08-25T07:31:29.726Z,26.40
2022-08-25T07:33:59.927Z,26.50
2022-08-25T07:36:26.832Z,27.20
2022-08-25T07:38:58.007Z,27.70
2022-08-25T07:41:26.367Z,27.10
2022-08-25T07:43:53.126Z,27.40
2022-08-25T07:46:21.033Z,27.60
2022-08-25T07:48:53.222Z,27.70
2022-08-25T07:51:20.437Z,27.00
2022-08-25T07:53:49.438Z,26.30
2022-08-25T07:56:17.755Z,25.60
2022-08-25T07:58:45.004Z,26.00
2022-08-25T08:01:14.639Z,25.80
2022-08-25T08:03:50.314Z,26.10
2022-08-25T08:06:21.959Z,26.60
2022-08-25T08:08:50.632Z,26.90
2022-08-25T08:11:26.272Z,27.20
2022-08-25T08:13:57.440Z,27.50
2022-08-25T08:16:27.693Z,27.20
2022-08-25T08:18:56.209Z,27.50
2022-08-25T08:21:35.030Z,27.20
2022-08-25T08:24:10.700Z,27.50
2022-08-25T08:26:57.574Z,27.50
2022-08-25T08:29:26.430Z,27.90
2022-08-25T08:31:53.276Z,27.70
2022-08-25T08:34:20.158Z,27.80
2022-08-25T08:36:53.740Z,27.40
2022-08-25T08:39:21.359Z,27.40
2022-08-25T08:42:12.137Z,27.00
2022-08-25T08:44:49.250Z,26.70
2022-08-25T08:47:27.694Z,27.00
2022-08-25T08:50:02.427Z,27.10
2022-08-25T08:52:41.231Z,27.50
2022-08-25T08:55:16.009Z,26.80
2022-08-25T09:00:19.920Z,27.50
2022-08-25T09:02:51.565Z,27.20
2022-08-25T09:05:24.072Z,27.20
2022-08-25T09:07:56.379Z,27.50
2022-08-25T09:10:34.585Z,27.30
2022-08-25T09:13:12.306Z,27.50
2022-08-25T09:15:50.717Z,27.60
2022-08-25T09:18:28.637Z,27.90
2022-08-25T09:21:07.418Z,28.00
2022-08-25T09:23:48.182Z,28.30
2022-08-25T09:26:28.116Z,27.80
2022-08-25T09:29:02.174Z,27.90
2022-08-25T09:31:36.075Z,27.90
2022-08-25T09:34:06.500Z,28.10
2022-08-25T09:36:37.879Z,28.30
2022-08-25T09:39:06.740Z,28.50
2022-08-25T09:41:43.833Z,28.90
2022-08-25T09:44:21.331Z,27.90
2022-08-25T09:46:58.257Z,28.50
2022-08-25T09:49:32.743Z,29.40
2022-08-25T09:52:30.462Z,29.40
2022-08-25T09:55:00.676Z,28.50
2022-08-25T09:57:34.113Z,28.80
2022-08-25T10:00:15.864Z,29.20
2022-08-25T10:02:44.419Z,28.80
2022-08-25T10:05:20.598Z,28.90
2022-08-25T10:07:54.733Z,29.40
2022-08-25T10:10:32.483Z,29.50
2022-08-25T10:13:01.252Z,30.00
2022-08-25T10:15:31.259Z,30.40
2022-08-25T10:18:24.006Z,30.00
2022-08-25T10:21:09.824Z,29.70
2022-08-25T10:23:40.170Z,29.00
2022-08-25T10:26:19.648Z,30.00
2022-08-25T10:28:57.967Z,29.90
2022-08-25T10:31:34.841Z,29.60
2022-08-25T10:34:17.549Z,29.80
2022-08-25T10:36:56.182Z,29.90
2022-08-25T10:39:36.885Z,30.30
2022-08-25T10:42:25.905Z,31.00
2022-08-25T10:45:08.132Z,30.60
2022-08-25T10:47:50.931Z,30.30
2022-08-25T10:50:30.259Z,30.40
2022-08-25T10:53:27.541Z,29.90
2022-08-25T10:56:08.926Z,29.90
2022-08-25T10:58:58.960Z,29.90
2022-08-25T11:01:43.679Z,29.90
2022-08-25T11:04:17.006Z,31.10
2022-08-25T11:06:54.798Z,31.00
2022-08-25T11:09:28.717Z,31.20
2022-08-25T11:11:59.170Z,30.80
2022-08-25T11:14:34.698Z,31.20
2022-08-25T11:17:06.145Z,31.00
2022-08-25T11:19:39.212Z,32.00
2022-08-25T11:22:14.754Z,32.10
2022-08-25T11:24:52.762Z,32.40
2022-08-25T11:27:25.394Z,32.20
2022-08-25T11:30:03.402Z,30.80
2022-08-25T11:32:33.396Z,30.90
2022-08-25T11:35:01.197Z,31.80
2022-08-25T11:37:30.562Z,31.70
2022-08-25T11:40:14.829Z,31.70
2022-08-25T11:42:59.023Z,31.70
2022-08-25T11:45:48.070Z,31.40
2022-08-25T11:48:35.245Z,31.40
2022-08-25T11:51:05.033Z,30.80
2022-08-25T11:53:34.512Z,31.60
2022-08-25T11:56:03.745Z,31.60
2022-08-25T11:58:43.256Z,31.50
2022-08-25T12:02:05.703Z,31.50
2022-08-25T12:04:44.157Z,31.50
2022-08-25T12:07:24.525Z,31.70
2022-08-25T12:10:12.102Z,31.70
2022-08-25T12:13:04.629Z,32.30
2022-08-25T12:15:57.602Z,31.80
2022-08-25T12:19:14.656Z,31.30
2022-08-25T12:21:43.398Z,31.80
2022-08-25T12:24:36.619Z,30.70
2022-08-25T12:27:06.527Z,30.70
2022-08-25T12:29:41.499Z,31.00
2022-08-25T12:32:40.817Z,30.80
2022-08-25T12:35:27.192Z,31.90
2022-08-25T12:38:05.492Z,31.60
2022-08-25T12:40:36.863Z,32.20
2022-08-25T12:43:08.907Z,31.50
2022-08-25T12:45:40.010Z,31.00
2022-08-25T12:48:45.075Z,32.30
2022-08-25T12:51:17.510Z,31.80
2022-08-25T12:53:49.957Z,32.30
2022-08-25T12:56:25.097Z,32.30
2022-08-25T12:59:01.431Z,31.50
2022-08-25T13:01:38.822Z,31.50
2022-08-25T13:04:31.678Z,32.10
2022-08-25T13:07:11.337Z,31.80
2022-08-25T13:10:17.932Z,31.40
2022-08-25T13:12:49.786Z,32.20
2022-08-25T13:15:28.957Z,31.30
2022-08-25T13:18:13.796Z,31.20
2022-08-25T13:20:44.058Z,31.60
2022-08-25T13:23:11.026Z,31.90
2022-08-25T13:25:48.242Z,32.20
2022-08-25T13:28:24.170Z,31.20
2022-08-25T13:31:05.630Z,31.50
2022-08-25T13:33:36.218Z,31.80
2022-08-25T13:36:04.480Z,31.50
2022-08-25T13:38:31.548Z,31.80
2022-08-25T13:41:09.403Z,31.80
2022-08-25T13:43:38.105Z,32.30
2022-08-25T13:46:06.289Z,31.50
2022-08-25T13:48:35.554Z,32.70
2022-08-25T13:51:16.751Z,32.30
2022-08-25T13:53:50.199Z,31.80
2022-08-25T13:56:26.870Z,32.30
2022-08-25T13:58:56.750Z,32.10
2022-08-25T14:01:48.635Z,31.70
2022-08-25T14:04:29.898Z,32.20
2022-08-25T14:07:13.919Z,31.90
2022-08-25T14:09:47.990Z,32.10
2022-08-25T14:12:29.863Z,31.10
2022-08-25T14:14:59.171Z,31.20
2022-08-25T14:17:39.225Z,31.10
2022-08-25T14:20:17.590Z,31.40
2022-08-25T14:22:44.419Z,31.20
2022-08-25T14:25:12.940Z,32.30
2022-08-25T14:28:06.822Z,32.40
2022-08-25T14:30:35.613Z,32.80
2022-08-25T14:33:03.572Z,31.50
2022-08-25T14:35:30.347Z,31.90
2022-08-25T14:37:59.213Z,31.70
2022-08-25T14:40:28.054Z,31.10
2022-08-25T14:43:02.155Z,31.40
2022-08-25T14:45:31.295Z,31.70
2022-08-25T14:48:04.692Z,31.40
2022-08-25T14:50:41.177Z,31.60
2022-08-25T14:53:15.128Z,31.60
2022-08-25T14:55:44.900Z,31.20
2022-08-25T14:58:13.095Z,31.20
2022-08-25T15:00:48.016Z,31.30
2022-08-25T15:03:18.151Z,31.00
2022-08-25T15:05:45.031Z,30.80
2022-08-25T15:08:12.353Z,31.20
2022-08-25T15:10:40.257Z,31.50
2022-08-25T15:13:07.438Z,31.40
2022-08-25T15:15:39.263Z,32.30
2022-08-25T15:18:20.873Z,31.70
2022-08-25T15:20:50.745Z,32.00
2022-08-25T15:23:17.776Z,31.00
2022-08-25T15:25:46.335Z,31.50
2022-08-25T15:28:13.316Z,31.50
2022-08-25T15:30:46.187Z,31.30
2022-08-25T15:33:13.313Z,30.80
2022-08-25T15:35:40.751Z,31.20
2022-08-25T15:38:08.661Z,31.40
2022-08-25T15:40:35.730Z,31.20
2022-08-25T15:43:03.617Z,31.30
2022-08-25T15:45:31.637Z,31.80
2022-08-25T15:48:00.081Z,32.30
2022-08-25T15:50:26.949Z,32.10
2022-08-25T15:52:54.361Z,32.80
2022-08-25T15:55:21.419Z,32.70
2022-08-25T15:57:49.640Z,31.60
2022-08-25T16:00:18.396Z,31.40
2022-08-25T16:02:45.475Z,30.90
2022-08-25T16:05:16.245Z,30.50
2022-08-25T16:07:44.163Z,30.40
2022-08-25T16:10:12.517Z,30.80
2022-08-25T16:12:39.350Z,31.20
2022-08-25T16:15:08.053Z,31.60
2022-08-25T16:17:35.192Z,31.30
2022-08-25T16:20:03.313Z,31.10
2022-08-25T16:22:40.679Z,30.90
2022-08-25T16:25:08.429Z,30.70
2022-08-25T16:27:38.804Z,30.80
2022-08-25T16:30:08.663Z,30.60
2022-08-25T16:32:36.056Z,30.70
2022-08-25T16:35:05.616Z,31.00
2022-08-25T16:37:40.512Z,30.90
2022-08-25T16:40:10.968Z,31.20
2022-08-25T16:42:44.552Z,30.90
2022-08-25T16:45:11.620Z,31.00
2022-08-25T16:47:38.429Z,31.00
2022-08-25T16:50:12.935Z,30.80
2022-08-25T16:52:44.432Z,30.40
2022-08-25T16:55:12.623Z,30.10
2022-08-25T16:57:40.654Z,29.80
2022-08-25T17:00:08.797Z,29.70
2022-08-25T17:02:37.548Z,29.70
2022-08-25T17:05:05.721Z,29.40
2022-08-25T17:07:36.247Z,29.20
2022-08-25T17:10:06.391Z,29.10
2022-08-25T17:12:33.227Z,29.10
2022-08-25T17:15:06.766Z,28.90
2022-08-25T17:17:34.229Z,28.90
2022-08-25T17:20:01.183Z,28.80
2022-08-25T17:22:31.828Z,28.70
2022-08-25T17:25:01.185Z,28.70
2022-08-25T17:27:29.524Z,28.60
2022-08-25T17:29:57.740Z,28.50
2022-08-25T17:32:28.910Z,28.40
2022-08-25T17:34:57.473Z,28.20
2022-08-25T17:37:24.606Z,28.10
2022-08-25T17:40:02.797Z,28.00
2022-08-25T17:42:31.379Z,27.90
2022-08-25T17:44:58.780Z,27.70
2022-08-25T17:47:26.775Z,27.40
2022-08-25T17:49:54.380Z,27.10
2022-08-25T17:52:25.041Z,26.90
2022-08-25T17:54:52.458Z,26.80
2022-08-25T17:57:19.949Z,26.60
2022-08-25T17:59:49.976Z,26.50
2022-08-25T18:02:16.738Z,26.20
2022-08-25T18:04:43.962Z,26.10
2022-08-25T18:07:11.544Z,25.90
2022-08-25T18:09:38.577Z,25.80
2022-08-25T18:12:06.219Z,25.70
2022-08-25T18:14:33.663Z,25.60
2022-08-25T18:17:01.825Z,25.40
2022-08-25T18:19:28.680Z,25.40
2022-08-25T18:21:58.905Z,25.40
2022-08-25T18:24:26.103Z,25.30
2022-08-25T18:26:54.352Z,25.10
2022-08-25T18:29:21.763Z,25.00
2022-08-25T18:31:48.865Z,25.10
2022-08-25T18:34:17.188Z,25.10
2022-08-25T18:36:46.289Z,25.10
2022-08-25T18:39:13.481Z,25.20
2022-08-25T18:41:45.002Z,25.00
2022-08-25T18:44:12.937Z,24.90
2022-08-25T18:46:42.675Z,24.70
2022-08-25T18:49:09.529Z,24.70
2022-08-25T18:51:38.882Z,24.50
2022-08-25T18:54:23.537Z,24.50
2022-08-25T18:56:52.300Z,24.40
2022-08-25T18:59:19.102Z,24.30
2022-08-25T19:01:46.005Z,24.20
2022-08-25T19:04:13.443Z,24.10
2022-08-25T19:06:41.576Z,24.00
2022-08-25T19:09:11.125Z,23.90
2022-08-25T19:11:38.928Z,23.80
2022-08-25T19:14:12.041Z,23.70
2022-08-25T19:16:43.617Z,23.60
2022-08-25T19:19:12.419Z,23.50
2022-08-25T19:21:41.887Z,23.50
2022-08-25T19:24:11.007Z,23.30
2022-08-25T19:26:39.341Z,23.30
2022-08-25T19:29:09.039Z,23.20
2022-08-25T19:31:37.201Z,23.10
2022-08-25T19:34:07.516Z,22.90
2022-08-25T19:36:34.421Z,22.90
2022-08-25T19:39:04.594Z,22.90
2022-08-25T19:41:32.174Z,22.70
2022-08-25T19:44:01.184Z,22.50
2022-08-25T19:46:32.858Z,22.40
2022-08-25T19:49:06.795Z,22.30
2022-08-25T19:51:35.431Z,22.20
2022-08-25T19:54:08.954Z,22.10
2022-08-25T19:56:38.023Z,22.10
2022-08-25T19:59:11.487Z,21.90
2022-08-25T20:01:39.265Z,21.80
2022-08-25T20:04:08.762Z,21.70
2022-08-25T20:06:37.323Z,21.70
2022-08-25T20:09:06.031Z,21.60
2022-08-25T20:11:32.901Z,21.50
2022-08-25T20:14:03.685Z,21.50
2022-08-25T20:16:31.081Z,21.50
2022-08-25T20:18:57.928Z,21.40
2022-08-25T20:21:27.776Z,21.30
2022-08-25T20:23:58.854Z,21.20
2022-08-25T20:26:27.861Z,21.20
2022-08-25T20:28:54.668Z,21.00
2022-08-25T20:31:21.751Z,21.00
2022-08-25T20:33:49.206Z,21.00
2022-08-25T20:36:17.079Z,20.80
2022-08-25T20:38:45.602Z,20.90
2022-08-25T20:41:13.978Z,20.70
2022-08-25T20:43:42.351Z,20.70
2022-08-25T20:46:09.959Z,20.70
2022-08-25T20:48:37.440Z,20.50
2022-08-25T20:51:06.479Z,20.40
2022-08-25T20:53:35.357Z,20.30
2022-08-25T20:56:02.823Z,20.20
2022-08-25T20:58:29.793Z,20.20
2022-08-25T21:00:57.939Z,20.20
2022-08-25T21:03:26.372Z,20.20
2022-08-25T21:05:53.991Z,20.10
2022-08-25T21:08:20.971Z,20.20
2022-08-25T21:10:51.252Z,20.20
2022-08-25T21:13:18.052Z,20.10
2022-08-25T21:15:44.912Z,20.10
2022-08-25T21:18:14.520Z,20.10
2022-08-25T21:20:42.011Z,20.10
2022-08-25T21:23:08.803Z,20.00
2022-08-25T21:25:39.522Z,19.90
2022-08-25T21:28:06.287Z,19.90
2022-08-25T21:30:33.501Z,19.80
2022-08-25T21:33:01.098Z,19.70
2022-08-25T21:35:29.272Z,19.70
2022-08-25T21:37:56.142Z,19.70
2022-08-25T21:40:23.585Z,19.60
2022-08-25T21:42:50.938Z,19.50
2022-08-25T21:45:20.989Z,19.50
2022-08-25T21:47:49.489Z,19.40
2022-08-25T21:50:16.320Z,19.40
2022-08-25T21:52:44.560Z,19.30
2022-08-25T21:55:16.088Z,19.20
2022-08-25T21:57:43.311Z,19.20
2022-08-25T22:00:12.276Z,19.10
2022-08-25T22:02:39.747Z,19.10
2022-08-25T22:05:10.818Z,19.00
2022-08-25T22:07:40.418Z,19.00
2022-08-25T22:10:15.922Z,18.90
2022-08-25T22:12:45.000Z,18.90
2022-08-25T22:15:13.652Z,18.80
2022-08-25T22:17:40.920Z,18.70
2022-08-25T22:20:09.147Z,18.70
2022-08-25T22:22:36.442Z,18.60
2022-08-25T22:25:03.938Z,18.60
2022-08-25T22:27:33.253Z,18.50
2022-08-25T22:30:01.344Z,18.50
2022-08-25T22:32:28.707Z,18.40
2022-08-25T22:34:55.495Z,18.40
2022-08-25T22:37:22.895Z,18.40
2022-08-25T22:39:49.967Z,18.30
2022-08-25T22:42:17.119Z,18.30
2022-08-25T22:44:46.079Z,18.20
2022-08-25T22:47:12.870Z,18.20
2022-08-25T22:49:40.349Z,18.20
2022-08-25T22:52:11.441Z,18.10
2022-08-25T22:54:38.443Z,18.10
2022-08-25T22:57:06.926Z,18.10
2022-08-25T22:59:34.483Z,18.10
2022-08-25T23:02:02.681Z,18.00
2022-08-25T23:04:29.961Z,18.00
2022-08-25T23:06:57.439Z,18.00
2022-08-25T23:09:24.964Z,17.90
2022-08-25T23:11:51.986Z,17.90
2022-08-25T23:14:19.620Z,17.90
2022-08-25T23:16:47.021Z,17.90
2022-08-25T23:19:15.297Z,17.90
2022-08-25T23:21:43.131Z,17.90
2022-08-25T23:24:11.057Z,17.90
2022-08-25T23:26:37.946Z,18.00
2022-08-25T23:29:18.481Z,17.90
2022-08-25T23:31:47.545Z,17.90
2022-08-25T23:34:16.888Z,17.90
2022-08-25T23:36:44.605Z,17.90
2022-08-25T23:39:11.426Z,17.90
2022-08-25T23:41:39.461Z,17.90
2022-08-25T23:44:09.167Z,17.90
2022-08-25T23:46:39.347Z,18.00
2022-08-25T23:49:08.311Z,17.90
2022-08-25T23:51:38.218Z,18.00
2022-08-25T23:54:09.489Z,18.00
2022-08-25T23:56:44.551Z,18.10
2022-08-25T23:59:19.391Z,18.10
